createdAt,value
2017-11-18T00:01:07.653Z,8.80
2017-11-18T00:03:41.086Z,8.80
2017-11-18T00:06:15.536Z,8.80
2017-11-18T00:08:49.281Z,8.80
2017-11-18T00:11:22.895Z,8.80
2017-11-18T00:13:56.354Z,8.80
2017-11-18T00:16:30.029Z,8.70
2017-11-18T00:19:03.566Z,8.70
2017-11-18T00:21:37.238Z,8.80
2017-11-18T00:24:10.864Z,8.80
2017-11-18T00:26:44.527Z,8.80
2017-11-18T00:29:18.102Z,8.90
2017-11-18T00:31:52.358Z,8.80
2017-11-18T00:34:25.836Z,8.80
2017-11-18T00:36:59.516Z,8.80
2017-11-18T00:39:33.119Z,8.80
2017-11-18T00:42:06.819Z,8.90
2017-11-18T00:44:41.121Z,8.80
2017-11-18T00:47:14.599Z,8.80
2017-11-18T00:49:48.230Z,8.80
2017-11-18T00:52:21.830Z,8.90
2017-11-18T00:54:55.431Z,8.90
2017-11-18T00:57:29.894Z,8.90
2017-11-18T01:00:04.170Z,8.80
2017-11-18T01:02:38.382Z,8.80
2017-11-18T01:05:11.898Z,8.80
2017-11-18T01:07:46.445Z,8.70
2017-11-18T01:10:20.078Z,8.70
2017-11-18T01:12:53.950Z,8.70
2017-11-18T01:15:27.851Z,8.70
2017-11-18T01:18:01.995Z,8.70
2017-11-18T01:20:35.991Z,8.90
2017-11-18T01:23:09.565Z,8.90
2017-11-18T01:25:43.175Z,8.90
2017-11-18T01:28:16.674Z,8.90
2017-11-18T01:30:50.267Z,8.80
2017-11-18T01:33:23.974Z,8.60
2017-11-18T01:35:57.986Z,8.80
2017-11-18T01:38:48.908Z,8.70
2017-11-18T01:41:23.109Z,8.60
2017-11-18T01:43:57.525Z,8.60
2017-11-18T01:46:31.126Z,8.60
2017-11-18T01:49:04.702Z,8.50
2017-11-18T01:51:38.333Z,8.40
2017-11-18T01:54:12.035Z,8.50
2017-11-18T01:56:45.639Z,8.30
2017-11-18T01:59:19.343Z,8.30
2017-11-18T02:01:52.799Z,8.20
2017-11-18T02:04:27.254Z,8.40
2017-11-18T02:07:00.754Z,8.30
2017-11-18T02:09:34.250Z,8.30
2017-11-18T02:12:07.834Z,8.50
2017-11-18T02:14:41.558Z,8.40
2017-11-18T02:17:15.158Z,8.40
2017-11-18T02:19:48.663Z,8.30
2017-11-18T02:22:22.259Z,8.30
2017-11-18T02:24:55.855Z,8.40
2017-11-18T02:27:29.457Z,8.40
2017-11-18T02:30:03.983Z,8.30
2017-11-18T02:32:37.571Z,8.20
2017-11-18T02:35:11.084Z,8.20
2017-11-18T02:37:44.647Z,8.20
2017-11-18T02:40:19.000Z,8.30
2017-11-18T02:42:52.597Z,8.30
2017-11-18T02:45:26.098Z,8.30
2017-11-18T02:47:59.650Z,8.40
2017-11-18T02:50:33.298Z,8.30
2017-11-18T02:53:06.947Z,8.10
2017-11-18T02:55:40.701Z,8.10
2017-11-18T02:58:14.141Z,8.10
2017-11-18T03:00:47.867Z,8.20
2017-11-18T03:03:21.416Z,8.10
2017-11-18T03:05:55.719Z,8.20
2017-11-18T03:08:29.435Z,8.20
2017-11-18T03:11:03.030Z,8.20
2017-11-18T03:13:36.597Z,8.10
2017-11-18T03:16:10.231Z,8.10
2017-11-18T03:18:43.797Z,8.10
2017-11-18T03:21:17.639Z,8.10
2017-11-18T03:23:51.208Z,8.10
2017-11-18T03:26:25.610Z,8.10
2017-11-18T03:28:59.243Z,8.10
2017-11-18T03:31:32.858Z,8.10
2017-11-18T03:34:06.415Z,8.10
2017-11-18T03:36:39.960Z,8.10
2017-11-18T03:39:14.283Z,7.90
2017-11-18T03:41:48.036Z,7.90
2017-11-18T03:44:21.754Z,7.90
2017-11-18T03:46:55.351Z,7.90
2017-11-18T03:49:29.852Z,8.00
2017-11-18T03:52:03.562Z,8.00
2017-11-18T03:54:37.923Z,7.90
2017-11-18T03:57:11.635Z,7.90
2017-11-18T03:59:45.169Z,7.90
2017-11-18T04:02:18.825Z,7.80
2017-11-18T04:04:53.366Z,7.70
2017-11-18T04:07:27.072Z,7.60
2017-11-18T04:10:00.857Z,7.50
2017-11-18T04:12:35.164Z,7.50
2017-11-18T04:15:08.718Z,7.50
2017-11-18T04:17:42.283Z,7.60
2017-11-18T04:20:15.878Z,7.60
2017-11-18T04:22:49.478Z,7.60
2017-11-18T04:25:23.186Z,7.50
2017-11-18T04:27:56.863Z,7.50
2017-11-18T04:30:30.401Z,7.60
2017-11-18T04:33:03.866Z,7.70
2017-11-18T04:35:37.494Z,7.70
2017-11-18T04:38:11.191Z,7.60
2017-11-18T04:40:44.736Z,7.70
2017-11-18T04:43:18.511Z,7.70
2017-11-18T04:45:52.199Z,7.60
2017-11-18T04:48:25.635Z,7.50
2017-11-18T04:50:59.123Z,7.50
2017-11-18T04:53:32.898Z,7.50
2017-11-18T04:56:06.488Z,7.50
2017-11-18T04:58:40.203Z,7.50
2017-11-18T05:01:13.758Z,7.40
2017-11-18T05:03:47.428Z,7.40
2017-11-18T05:06:21.010Z,7.20
2017-11-18T05:08:54.577Z,7.30
2017-11-18T05:11:28.142Z,7.20
2017-11-18T05:14:02.009Z,7.20
2017-11-18T05:16:36.499Z,7.20
2017-11-18T05:19:10.859Z,7.20
2017-11-18T05:21:44.456Z,7.10
2017-11-18T05:24:17.919Z,7.20
2017-11-18T05:26:51.754Z,7.20
2017-11-18T05:29:25.394Z,7.20
2017-11-18T05:31:58.966Z,7.10
2017-11-18T05:34:32.758Z,7.10
2017-11-18T05:37:06.331Z,7.10
2017-11-18T05:39:39.907Z,7.00
2017-11-18T05:42:13.770Z,7.00
2017-11-18T05:44:47.366Z,7.10
2017-11-18T05:47:20.970Z,7.10
2017-11-18T05:49:54.779Z,7.20
2017-11-18T05:52:28.383Z,7.10
2017-11-18T05:55:02.091Z,7.10
2017-11-18T05:57:35.635Z,7.00
2017-11-18T06:00:09.382Z,6.90
2017-11-18T06:02:43.451Z,6.90
2017-11-18T06:05:17.103Z,6.80
2017-11-18T06:07:50.594Z,6.70
2017-11-18T06:10:24.811Z,6.90
2017-11-18T06:12:59.231Z,6.80
2017-11-18T06:15:32.939Z,6.70
2017-11-18T06:18:06.534Z,6.70
2017-11-18T06:20:40.082Z,6.70
2017-11-18T06:23:14.318Z,6.70
2017-11-18T06:25:47.855Z,6.80
2017-11-18T06:28:21.560Z,6.80
2017-11-18T06:30:55.123Z,6.70
2017-11-18T06:33:28.567Z,6.70
2017-11-18T06:36:02.359Z,6.60
2017-11-18T06:38:35.863Z,6.80
2017-11-18T06:41:09.311Z,6.80
2017-11-18T06:43:42.950Z,6.80
2017-11-18T06:46:16.450Z,6.80
2017-11-18T06:48:50.666Z,6.70
2017-11-18T06:51:24.273Z,6.70
2017-11-18T06:53:58.069Z,6.70
2017-11-18T06:56:31.674Z,6.80
2017-11-18T06:59:05.243Z,6.90
2017-11-18T07:01:38.790Z,6.80
2017-11-18T07:04:12.374Z,7.00
2017-11-18T07:06:46.035Z,7.00
2017-11-18T07:09:20.366Z,6.90
2017-11-18T07:11:54.098Z,6.90
2017-11-18T07:14:27.807Z,7.00
2017-11-18T07:17:01.411Z,6.70
2017-11-18T07:19:34.898Z,6.70
2017-11-18T07:22:08.612Z,6.70
2017-11-18T07:24:42.194Z,6.60
2017-11-18T07:27:15.811Z,6.70
2017-11-18T07:29:49.310Z,6.70
2017-11-18T07:32:22.915Z,6.70
2017-11-18T07:34:56.514Z,6.70
2017-11-18T07:37:30.727Z,6.80
2017-11-18T07:40:05.042Z,6.70
2017-11-18T07:42:38.586Z,6.70
2017-11-18T07:45:12.151Z,6.80
2017-11-18T07:47:45.741Z,6.90
2017-11-18T07:50:19.515Z,7.00
2017-11-18T07:52:53.000Z,6.90
2017-11-18T07:55:26.710Z,6.90
2017-11-18T07:58:00.319Z,6.90
2017-11-18T08:00:34.059Z,7.00
2017-11-18T08:03:07.672Z,7.00
2017-11-18T08:05:41.108Z,7.10
2017-11-18T08:08:14.746Z,7.30
2017-11-18T08:10:48.191Z,7.30
2017-11-18T08:13:21.703Z,7.30
2017-11-18T08:15:55.227Z,7.20
2017-11-18T08:18:28.765Z,7.30
2017-11-18T08:21:03.959Z,7.40
2017-11-18T08:23:38.163Z,7.30
2017-11-18T08:26:11.717Z,7.30
2017-11-18T08:28:46.015Z,7.30
2017-11-18T08:31:19.566Z,7.30
2017-11-18T08:33:53.217Z,7.30
2017-11-18T08:36:41.517Z,7.30
2017-11-18T08:39:15.058Z,7.30
2017-11-18T08:41:48.496Z,7.40
2017-11-18T08:44:21.994Z,7.50
2017-11-18T08:46:55.502Z,7.50
2017-11-18T08:49:28.998Z,7.40
2017-11-18T08:52:02.645Z,7.50
2017-11-18T08:54:37.051Z,7.50
2017-11-18T08:57:10.676Z,7.40
2017-11-18T08:59:44.973Z,7.50
2017-11-18T09:02:19.188Z,7.50
2017-11-18T09:04:52.702Z,7.40
2017-11-18T09:07:27.112Z,7.70
2017-11-18T09:10:00.638Z,7.70
2017-11-18T09:12:34.098Z,7.60
2017-11-18T09:15:07.751Z,7.60
2017-11-18T09:17:41.179Z,7.80
2017-11-18T09:20:14.711Z,7.90
2017-11-18T09:22:48.384Z,7.90
2017-11-18T09:25:22.043Z,8.00
2017-11-18T09:27:55.585Z,8.10
2017-11-18T09:30:29.115Z,8.30
2017-11-18T09:33:02.623Z,8.40
2017-11-18T09:35:36.275Z,8.40
2017-11-18T09:38:09.810Z,8.50
2017-11-18T09:40:44.014Z,8.60
2017-11-18T09:43:17.710Z,8.60
2017-11-18T09:45:51.362Z,8.70
2017-11-18T09:48:24.791Z,8.70
2017-11-18T09:50:58.450Z,8.70
2017-11-18T09:53:31.955Z,8.70
2017-11-18T09:56:06.242Z,8.80
2017-11-18T09:58:39.762Z,8.80
2017-11-18T10:01:14.050Z,8.90
2017-11-18T10:03:48.258Z,8.90
2017-11-18T10:06:21.891Z,8.90
2017-11-18T10:08:56.286Z,8.90
2017-11-18T10:11:29.795Z,8.90
2017-11-18T10:14:03.307Z,9.00
2017-11-18T10:16:37.710Z,9.00
2017-11-18T10:19:11.283Z,8.90
2017-11-18T10:21:44.818Z,9.00
2017-11-18T10:24:18.312Z,9.00
2017-11-18T10:26:51.939Z,9.00
2017-11-18T10:29:25.419Z,9.00
2017-11-18T10:31:59.724Z,9.00
2017-11-18T10:34:33.361Z,9.00
2017-11-18T10:37:07.650Z,9.00
2017-11-18T10:39:41.846Z,9.00
2017-11-18T10:42:15.351Z,8.90
2017-11-18T10:44:48.870Z,8.90
2017-11-18T10:47:22.428Z,8.90
2017-11-18T10:49:56.046Z,8.90
2017-11-18T10:52:29.679Z,8.90
2017-11-18T10:55:03.259Z,9.00
2017-11-18T10:57:36.779Z,9.00
2017-11-18T11:00:10.374Z,9.20
2017-11-18T11:02:43.926Z,9.30
2017-11-18T11:05:17.549Z,9.40
2017-11-18T11:07:51.234Z,9.40
2017-11-18T11:10:24.887Z,9.50
2017-11-18T11:12:58.466Z,9.50
2017-11-18T11:15:32.975Z,9.60
2017-11-18T11:18:06.817Z,9.50
2017-11-18T11:20:40.406Z,9.60
2017-11-18T11:23:13.982Z,9.60
2017-11-18T11:25:47.466Z,9.60
2017-11-18T11:28:21.070Z,9.60
2017-11-18T11:30:54.819Z,9.50
2017-11-18T11:33:28.626Z,9.50
2017-11-18T11:36:02.231Z,9.50
2017-11-18T11:38:35.783Z,9.50
2017-11-18T11:41:09.318Z,9.60
2017-11-18T11:43:42.891Z,9.60
2017-11-18T11:46:16.726Z,9.50
2017-11-18T11:48:50.426Z,9.50
2017-11-18T11:51:24.240Z,9.40
2017-11-18T11:53:57.841Z,9.40
2017-11-18T11:56:31.347Z,9.40
2017-11-18T11:59:05.044Z,9.30
2017-11-18T12:01:38.595Z,9.30
2017-11-18T12:04:12.452Z,9.20
2017-11-18T12:06:46.052Z,9.20
2017-11-18T12:09:19.618Z,9.20
2017-11-18T12:11:53.350Z,9.30
2017-11-18T12:14:27.168Z,9.20
2017-11-18T12:17:00.760Z,9.30
2017-11-18T12:19:34.218Z,9.20
2017-11-18T12:22:07.742Z,9.20
2017-11-18T12:24:41.454Z,9.10
2017-11-18T12:27:14.930Z,9.20
2017-11-18T12:29:48.728Z,9.10
2017-11-18T12:32:24.115Z,9.00
2017-11-18T12:34:58.314Z,9.00
2017-11-18T12:37:33.872Z,9.00
2017-11-18T12:40:07.462Z,9.00
2017-11-18T12:42:41.938Z,9.10
2017-11-18T12:45:15.545Z,9.00
2017-11-18T12:47:49.395Z,9.00
2017-11-18T12:50:22.998Z,9.00
2017-11-18T12:52:56.647Z,9.00
2017-11-18T12:55:30.407Z,9.00
2017-11-18T12:58:04.102Z,9.00
2017-11-18T13:00:37.747Z,8.90
2017-11-18T13:03:11.374Z,9.00
2017-11-18T13:05:45.012Z,8.90
2017-11-18T13:08:19.526Z,8.90
2017-11-18T13:10:53.238Z,8.90
2017-11-18T13:13:26.834Z,8.90
2017-11-18T13:16:00.542Z,8.90
2017-11-18T13:18:34.103Z,8.90
2017-11-18T13:21:07.742Z,8.90
2017-11-18T13:23:41.342Z,8.90
2017-11-18T13:26:14.893Z,8.90
2017-11-18T13:28:48.502Z,8.90
2017-11-18T13:31:22.251Z,8.80
2017-11-18T13:33:55.984Z,8.90
2017-11-18T13:36:30.223Z,8.90
2017-11-18T13:39:03.723Z,8.90
2017-11-18T13:41:37.280Z,8.80
2017-11-18T13:44:10.835Z,8.90
2017-11-18T13:46:44.580Z,8.90
2017-11-18T13:49:18.270Z,8.90
2017-11-18T13:51:51.881Z,8.90
2017-11-18T13:54:25.547Z,8.90
2017-11-18T13:56:59.598Z,8.90
2017-11-18T13:59:33.299Z,8.90
2017-11-18T14:02:06.994Z,8.80
2017-11-18T14:04:41.142Z,8.80
2017-11-18T14:07:14.819Z,8.80
2017-11-18T14:09:49.358Z,8.80
2017-11-18T14:12:23.042Z,8.90
2017-11-18T14:14:56.636Z,8.90
2017-11-18T14:17:30.972Z,8.90
2017-11-18T14:20:04.550Z,8.90
2017-11-18T14:22:38.155Z,8.90
2017-11-18T14:25:11.760Z,8.90
2017-11-18T14:27:45.255Z,8.80
2017-11-18T14:30:19.478Z,8.90
2017-11-18T14:32:53.270Z,8.90
2017-11-18T14:35:26.747Z,8.90
2017-11-18T14:38:00.314Z,8.90
2017-11-18T14:40:33.866Z,8.90
2017-11-18T14:43:07.584Z,8.90
2017-11-18T14:45:41.178Z,8.90
2017-11-18T14:48:14.656Z,8.90
2017-11-18T14:50:48.119Z,8.90
2017-11-18T14:53:21.841Z,8.90
2017-11-18T14:55:55.419Z,8.90
2017-11-18T14:58:29.147Z,8.90
2017-11-18T15:01:02.565Z,8.80
2017-11-18T15:03:36.250Z,8.90
2017-11-18T15:06:10.550Z,8.90
2017-11-18T15:08:44.170Z,8.90
2017-11-18T15:11:17.849Z,8.80
2017-11-18T15:13:51.619Z,8.80
2017-11-18T15:16:44.142Z,8.80
2017-11-18T15:22:24.617Z,8.80
2017-11-18T15:25:03.894Z,8.80
2017-11-18T15:27:56.411Z,8.70
2017-11-18T15:33:52.987Z,8.80
2017-11-18T15:36:32.262Z,8.70
2017-11-18T15:39:06.418Z,8.70
2017-11-18T15:41:39.978Z,8.70
2017-11-18T15:44:14.354Z,8.70
2017-11-18T15:46:53.741Z,8.70
2017-11-18T15:49:33.082Z,8.80
2017-11-18T15:52:22.497Z,8.70
2017-11-18T15:58:09.786Z,8.80
2017-11-18T16:00:44.332Z,8.80
2017-11-18T16:03:20.570Z,8.70
2017-11-18T16:05:54.045Z,8.80
2017-11-18T16:08:28.577Z,8.70
2017-11-18T16:11:02.178Z,8.70
2017-11-18T16:13:36.411Z,8.70
2017-11-18T16:16:10.830Z,8.70
2017-11-18T16:18:44.350Z,8.70
2017-11-18T16:21:17.870Z,8.70
2017-11-18T16:23:51.662Z,8.70
2017-11-18T16:26:25.378Z,8.70
2017-11-18T16:28:58.961Z,8.60
2017-11-18T16:31:32.566Z,8.70
2017-11-18T16:34:06.177Z,8.70
2017-11-18T16:36:39.746Z,8.70
2017-11-18T16:39:13.269Z,8.60
2017-11-18T16:41:46.882Z,8.70
2017-11-18T16:44:20.380Z,8.70
2017-11-18T16:46:54.074Z,8.70
2017-11-18T16:49:27.819Z,8.70
2017-11-18T16:52:01.341Z,8.70
2017-11-18T16:54:36.691Z,8.70
2017-11-18T16:57:10.270Z,8.70
2017-11-18T16:59:43.827Z,8.70
2017-11-18T17:02:17.421Z,8.70
2017-11-18T17:04:51.014Z,8.70
2017-11-18T17:07:24.519Z,8.70
2017-11-18T17:09:58.067Z,8.80
2017-11-18T17:12:31.819Z,8.70
2017-11-18T17:15:05.427Z,8.70
2017-11-18T17:17:38.991Z,8.60
2017-11-18T17:20:13.654Z,8.70
2017-11-18T17:22:47.250Z,8.70
2017-11-18T17:25:21.790Z,8.70
2017-11-18T17:27:55.592Z,8.70
2017-11-18T17:30:29.176Z,8.70
2017-11-18T17:33:02.883Z,8.70
2017-11-18T17:35:36.447Z,8.80
2017-11-18T17:38:10.185Z,8.70
2017-11-18T17:40:43.687Z,8.60
2017-11-18T17:43:17.975Z,8.60
2017-11-18T17:45:52.318Z,8.60
2017-11-18T17:48:26.028Z,8.60
2017-11-18T17:50:59.602Z,8.60
2017-11-18T17:53:33.232Z,8.60
2017-11-18T17:56:06.778Z,8.60
2017-11-18T17:58:40.428Z,8.60
2017-11-18T18:01:14.023Z,8.60
2017-11-18T18:03:47.582Z,8.70
2017-11-18T18:06:21.093Z,8.70
2017-11-18T18:08:54.722Z,8.60
2017-11-18T18:11:28.226Z,8.60
2017-11-18T18:14:01.971Z,8.60
2017-11-18T18:16:35.712Z,8.60
2017-11-18T18:19:09.330Z,8.60
2017-11-18T18:21:42.842Z,8.60
2017-11-18T18:24:16.430Z,8.50
2017-11-18T18:26:50.715Z,8.50
2017-11-18T18:29:24.364Z,8.50
2017-11-18T18:31:58.167Z,8.60
2017-11-18T18:34:31.766Z,8.50
2017-11-18T18:37:06.183Z,8.50
2017-11-18T18:39:39.758Z,8.50
2017-11-18T18:42:13.262Z,8.50
2017-11-18T18:44:46.988Z,8.60
2017-11-18T18:47:20.483Z,8.60
2017-11-18T18:49:54.050Z,8.50
2017-11-18T18:52:27.526Z,8.60
2017-11-18T18:55:01.283Z,8.50
2017-11-18T18:57:34.830Z,8.50
2017-11-18T19:00:08.540Z,8.50
2017-11-18T19:02:43.008Z,8.50
2017-11-18T19:05:16.710Z,8.50
2017-11-18T19:07:50.255Z,8.50
2017-11-18T19:10:23.909Z,8.50
2017-11-18T19:12:57.407Z,8.40
2017-11-18T19:15:31.018Z,8.50
2017-11-18T19:18:04.551Z,8.50
2017-11-18T19:20:38.310Z,8.60
2017-11-18T19:23:12.014Z,8.50
2017-11-18T19:25:46.506Z,8.50
2017-11-18T19:28:20.146Z,8.50
2017-11-18T19:30:53.703Z,8.50
2017-11-18T19:33:27.239Z,8.50
2017-11-18T19:36:00.699Z,8.50
2017-11-18T19:38:34.419Z,8.50
2017-11-18T19:41:08.251Z,8.50
2017-11-18T19:43:41.667Z,8.50
2017-11-18T19:46:15.341Z,8.40
2017-11-18T19:48:48.898Z,8.50
2017-11-18T19:51:22.755Z,8.60
2017-11-18T19:53:56.467Z,8.70
2017-11-18T19:56:29.984Z,8.60
2017-11-18T19:59:03.554Z,8.60
2017-11-18T20:01:37.159Z,8.60
2017-11-18T20:04:10.758Z,8.50
2017-11-18T20:06:44.343Z,8.50
2017-11-18T20:09:17.907Z,8.50
2017-11-18T20:11:51.564Z,8.40
2017-11-18T20:14:25.038Z,8.50
2017-11-18T20:16:58.822Z,8.40
2017-11-18T20:19:32.451Z,8.50
2017-11-18T20:22:06.992Z,8.50
2017-11-18T20:24:40.707Z,8.50
2017-11-18T20:27:14.208Z,8.40
2017-11-18T20:29:47.995Z,8.40
2017-11-18T20:32:21.693Z,8.40
2017-11-18T20:34:55.298Z,8.40
2017-11-18T20:37:28.894Z,8.40
2017-11-18T20:40:02.442Z,8.40
2017-11-18T20:42:36.208Z,8.50
2017-11-18T20:45:09.798Z,8.50
2017-11-18T20:47:43.369Z,8.40
2017-11-18T20:50:17.106Z,8.40
2017-11-18T20:52:50.807Z,8.40
2017-11-18T20:55:24.615Z,8.40
2017-11-18T20:57:58.357Z,8.40
2017-11-18T21:00:32.021Z,8.40
2017-11-18T21:03:05.721Z,8.40
2017-11-18T21:05:39.281Z,8.40
2017-11-18T21:08:12.806Z,8.40
2017-11-18T21:10:46.422Z,8.50
2017-11-18T21:13:20.132Z,8.50
2017-11-18T21:15:54.514Z,8.50
2017-11-18T21:18:28.125Z,8.50
2017-11-18T21:21:01.607Z,8.50
2017-11-18T21:23:35.228Z,8.50
2017-11-18T21:26:08.856Z,8.50
2017-11-18T21:28:43.242Z,8.50
2017-11-18T21:31:16.970Z,8.50
2017-11-18T21:33:50.573Z,8.40
2017-11-18T21:36:24.070Z,8.40
2017-11-18T21:38:57.783Z,8.40
2017-11-18T21:41:31.330Z,8.50
2017-11-18T21:44:04.964Z,8.50
2017-11-18T21:46:38.610Z,8.60
2017-11-18T21:49:12.186Z,8.50
2017-11-18T21:51:45.698Z,8.50
2017-11-18T21:54:19.243Z,8.50
2017-11-18T21:56:53.594Z,8.50
2017-11-18T21:59:27.199Z,8.50
2017-11-18T22:02:00.697Z,8.50
2017-11-18T22:04:34.259Z,8.50
2017-11-18T22:07:07.791Z,8.60
2017-11-18T22:09:41.494Z,8.50
2017-11-18T22:12:15.043Z,8.50
2017-11-18T22:14:49.587Z,8.50
2017-11-18T22:17:23.246Z,8.60
2017-11-18T22:19:56.826Z,8.50
2017-11-18T22:22:30.938Z,8.60
2017-11-18T22:25:04.743Z,8.50
2017-11-18T22:27:38.190Z,8.60
2017-11-18T22:30:12.437Z,8.50
2017-11-18T22:32:46.638Z,8.60
2017-11-18T22:35:20.141Z,8.60
2017-11-18T22:37:54.545Z,8.60
2017-11-18T22:40:28.056Z,8.50
2017-11-18T22:43:01.700Z,8.60
2017-11-18T22:45:35.140Z,8.50
2017-11-18T22:48:08.570Z,8.60
2017-11-18T22:50:42.091Z,8.60
2017-11-18T22:53:15.528Z,8.50
2017-11-18T22:55:49.042Z,8.60
2017-11-18T22:58:22.682Z,8.60
2017-11-18T23:00:56.985Z,8.60
2017-11-18T23:03:31.390Z,8.60
2017-11-18T23:06:04.897Z,8.60
2017-11-18T23:08:38.514Z,8.60
2017-11-18T23:11:12.015Z,8.60
2017-11-18T23:13:45.460Z,8.60
2017-11-18T23:16:18.976Z,8.60
2017-11-18T23:18:52.406Z,8.60
2017-11-18T23:21:26.703Z,8.60
2017-11-18T23:24:00.218Z,8.60
2017-11-18T23:26:33.871Z,8.40
2017-11-18T23:29:07.479Z,8.70
2017-11-18T23:31:41.241Z,8.70
2017-11-18T23:34:14.830Z,8.70
2017-11-18T23:36:49.354Z,8.60
2017-11-18T23:39:23.027Z,8.60
2017-11-18T23:41:57.474Z,8.60
2017-11-18T23:44:30.979Z,8.60
2017-11-18T23:47:05.258Z,8.60
2017-11-18T23:49:38.918Z,8.60
2017-11-18T23:52:12.403Z,8.60
2017-11-18T23:54:45.936Z,8.70
2017-11-18T23:57:20.414Z,8.60
2017-11-18T23:59:53.919Z,8.50
